Pagina principale
METAR-TAF:

METAR-TAF

Aeroporti :

Flessinga, Paesi Bassi

latitudine: 51-27N, longitudine: 3-36E, altezza: 10 m

Osservazione

Il bollettino è stato emesso 26 minuti fa, alle 19:25 UTC
Vento 5 kt da ovest/sud-ovest
Temperature 17°C
Umidità 94%
Pressione 1007 hPa
Visibilità 10 km o più

METAR: EHFS 191925Z AUTO 24005KT 9999 NSC 17/16 Q1007 W///H///

Ora: 21:51 (19:51 UTC)


TAF: mancante

Osservazioni e previsioni meteorologiche di più di 4000 aeroporti (messaggi METAR e TAF).

Le stazioni disponibili sono rappresentate dai dischi gialli e rossi sulla carta.

Puntare il mouse per vedere il nome della stazione.

Clicca sopra per visualizzare le osservazioni e previsioni meteorologiche.

Per cambiare la mappa : fare clic sui pulsanti verdi con una croce nera per ingrandire, il pulsante verde con un trattino per diminuire, o sulla freccia verde per le mappe adiacenti.


METAR-TAF: